White Water, CA

12:47 AM PDT on October 31, 2014 (GMT -0700)
RAWS WHITEWATER CA US | Change Station
CLOSE
Current Station
Personal Weather Station
Location: White Water, CA
Elevation: 2545 ft
Nearby Weather Stations
Active Advisory: Wind Advisory

Elev 2545 ft 33.95 °N, 116.66 °W | Updated 57 minutes ago

Partly Cloudy
Partly Cloudy
67 °F
Feels Like 67 °F
N
17
Wind Variable Wind from WSW
Gusts 25.0 mph

Today
High -- | Low -- °F
--% Chance of Precip.
Yesterday
High -- | Low -- °F
Precip. -- in
7:05 AM 5:54 PM
First Quarter, 52% visible
Pressure 29.90 in
Visibility -9999.0 miles
Clouds Clear
Dew Point 42 °F
Humidity 40%
Rainfall 0.00 in
Snow Depth Not available.
UV 0 out of 12
Pollen 3.50 out of 12
Air Quality Not available.
Flu Activity Not available.
METAR KPSP 310653Z AUTO 17003KT CLR 22/07 A2990 RMK AO2 SLP123 T02220072 TSNO

More Conditions Fewer Conditions

Pressure 29.90 in
Visibility -9999.0 miles
Clouds Clear
Dew Point 42 °F
Humidity 40%
Rainfall 0.00 in
Snow Depth Not available.
UV 0 out of 12
Pollen 3.50 out of 12
Air Quality Not available.
Flu Activity Not available.
METAR KPSP 310653Z AUTO 17003KT CLR 22/07 A2990 RMK AO2 SLP123 T02220072 TSNO

More Conditions Fewer Conditions

10-Day Weather Forecast

Almanac

Astronomy

Oct. 31, 2014 Rise Set
Actual Time
Civil Twilight
Nautical Twilight
Astronomical Twilight
Moon
Length of Visible Light
Length of Day
Tomorrow will be .
, % of the Moon is Illuminated

Today's Extremes

State Highs State Lows

Community

WunderPhotos

Upload Photos

1,766,573 photos uploaded!

WunderBlogs® & News

Nearby

Air Quality

  Air Quality AQ Index Pollutant
Not available.

Snow Depth

Station Depth Elevation

Earthquake Activity

City Distance Mag. Time & Date
Minimum magnitude displayed is 2.5.

Coastal Water Temperatures

Place Temperature

Nearby Weather Stations